createdAt,value
2023-04-17T00:00:00.015Z,100851.22
2023-04-17T00:02:30.100Z,100847.00
2023-04-17T00:04:59.797Z,100836.91
2023-04-17T00:07:28.486Z,100846.91
2023-04-17T00:09:55.862Z,100845.84
2023-04-17T00:12:23.485Z,100844.38
2023-04-17T00:14:50.724Z,100843.75
2023-04-17T00:17:18.039Z,100846.47
2023-04-17T00:19:46.694Z,100845.41
2023-04-17T00:22:13.993Z,100842.94
2023-04-17T00:24:42.400Z,100842.59
2023-04-17T00:27:10.141Z,100839.44
2023-04-17T00:29:38.025Z,100845.41
2023-04-17T00:32:05.886Z,100846.34
2023-04-17T00:34:33.599Z,100837.72
2023-04-17T00:37:01.470Z,100837.66
2023-04-17T00:39:29.251Z,100836.38
2023-04-17T00:41:57.559Z,100835.28
2023-04-17T00:44:24.833Z,100826.25
2023-04-17T00:46:52.684Z,100831.13
2023-04-17T00:49:20.625Z,100825.41
2023-04-17T00:51:49.283Z,100830.75
2023-04-17T00:54:16.726Z,100826.56
2023-04-17T00:56:44.556Z,100826.16
2023-04-17T00:59:13.339Z,100823.09
2023-04-17T01:01:41.123Z,100829.28
2023-04-17T01:04:10.343Z,100824.50
2023-04-17T01:06:37.767Z,100826.03
2023-04-17T01:09:05.399Z,100824.03
2023-04-17T01:11:33.272Z,100821.94
2023-04-17T01:14:00.786Z,100822.13
2023-04-17T01:16:30.813Z,100816.69
2023-04-17T01:18:58.788Z,100809.44
2023-04-17T01:21:27.632Z,100809.81
2023-04-17T01:23:55.952Z,100809.56
2023-04-17T01:26:30.960Z,100810.06
2023-04-17T01:28:58.917Z,100811.31
2023-04-17T01:31:28.904Z,100818.25
2023-04-17T01:33:56.630Z,100822.34
2023-04-17T01:36:23.881Z,100819.88
2023-04-17T01:38:51.164Z,100820.84
2023-04-17T01:41:19.224Z,100821.69
2023-04-17T01:43:47.589Z,100822.53
2023-04-17T01:46:15.417Z,100821.50
2023-04-17T01:48:43.153Z,100817.41
2023-04-17T01:51:10.402Z,100820.66
2023-04-17T01:53:39.436Z,100818.94
2023-04-17T01:56:07.409Z,100822.66
2023-04-17T01:58:35.951Z,100820.22
2023-04-17T02:01:03.412Z,100823.72
2023-04-17T02:03:31.539Z,100823.53
2023-04-17T02:05:59.233Z,100818.59
2023-04-17T02:08:27.194Z,100819.63
2023-04-17T02:10:55.030Z,100822.75
2023-04-17T02:13:22.762Z,100818.97
2023-04-17T02:15:50.126Z,100815.75
2023-04-17T02:18:18.068Z,100809.88
2023-04-17T02:20:45.507Z,100815.38
2023-04-17T02:23:13.310Z,100806.84
2023-04-17T02:25:40.678Z,100817.44
2023-04-17T02:28:08.560Z,100819.53
2023-04-17T02:30:36.139Z,100819.19
2023-04-17T02:33:04.233Z,100806.25
2023-04-17T02:35:31.931Z,100806.00
2023-04-17T02:37:59.928Z,100813.47
2023-04-17T02:40:27.993Z,100802.69
2023-04-17T02:43:01.649Z,100809.75
2023-04-17T02:45:31.209Z,100807.03
2023-04-17T02:47:59.125Z,100810.56
2023-04-17T02:50:26.972Z,100808.28
2023-04-17T02:53:06.667Z,100811.06
2023-04-17T02:55:34.907Z,100808.53
2023-04-17T02:58:02.399Z,100806.44
2023-04-17T03:00:29.796Z,100807.00
2023-04-17T03:02:57.765Z,100806.44
2023-04-17T03:05:25.973Z,100808.22
2023-04-17T03:07:55.248Z,100812.03
2023-04-17T03:10:23.295Z,100815.06
2023-04-17T03:12:51.156Z,100808.63
2023-04-17T03:15:18.458Z,100809.91
2023-04-17T03:17:46.540Z,100808.31
2023-04-17T03:20:16.132Z,100811.34
2023-04-17T03:22:43.740Z,100813.78
2023-04-17T03:25:11.850Z,100811.25
2023-04-17T03:27:53.019Z,100812.94
2023-04-17T03:30:23.913Z,100807.69
2023-04-17T03:32:53.084Z,100814.97
2023-04-17T03:35:21.153Z,100816.34
2023-04-17T03:37:48.543Z,100814.06
2023-04-17T03:40:16.398Z,100812.00
2023-04-17T03:42:45.954Z,100807.03
2023-04-17T03:45:13.266Z,100807.94
2023-04-17T03:47:41.904Z,100801.47
2023-04-17T03:50:10.500Z,100803.59
2023-04-17T03:52:44.070Z,100802.66
2023-04-17T03:55:11.622Z,100803.84
2023-04-17T03:57:39.467Z,100803.97
2023-04-17T04:00:10.402Z,100810.06
2023-04-17T04:02:49.702Z,100804.88
2023-04-17T04:05:21.919Z,100804.03
2023-04-17T04:07:50.204Z,100810.75
2023-04-17T04:10:25.002Z,100816.56
2023-04-17T04:12:52.540Z,100815.78
2023-04-17T04:15:19.882Z,100810.00
2023-04-17T04:17:51.931Z,100816.31
2023-04-17T04:20:19.702Z,100817.19
2023-04-17T04:22:48.729Z,100817.00
2023-04-17T04:25:17.332Z,100821.13
2023-04-17T04:27:53.014Z,100823.09
2023-04-17T04:30:25.516Z,100821.09
2023-04-17T04:33:01.230Z,100817.72
2023-04-17T04:35:30.595Z,100817.09
2023-04-17T04:38:02.299Z,100815.44
2023-04-17T04:40:38.310Z,100820.91
2023-04-17T04:43:07.572Z,100819.63
2023-04-17T04:45:43.524Z,100821.53
2023-04-17T04:48:11.804Z,100820.28
2023-04-17T04:50:39.397Z,100817.09
2023-04-17T04:53:06.797Z,100806.84
2023-04-17T04:55:45.606Z,100817.97
2023-04-17T04:58:13.413Z,100823.66
2023-04-17T05:00:41.361Z,100827.34
2023-04-17T05:03:13.596Z,100816.72
2023-04-17T05:05:43.339Z,100828.16
2023-04-17T05:08:14.062Z,100822.03
2023-04-17T05:10:43.476Z,100832.06
2023-04-17T05:13:11.347Z,100826.13
2023-04-17T05:15:39.116Z,100827.75
2023-04-17T05:18:06.693Z,100838.28
2023-04-17T05:20:36.373Z,100836.31
2023-04-17T05:23:06.058Z,100836.56
2023-04-17T05:25:33.563Z,100844.19
2023-04-17T05:28:04.944Z,100836.63
2023-04-17T05:30:32.491Z,100842.06
2023-04-17T05:33:11.840Z,100835.97
2023-04-17T05:35:48.427Z,100844.97
2023-04-17T05:38:16.250Z,100838.03
2023-04-17T05:40:44.072Z,100841.63
2023-04-17T05:43:12.205Z,100845.47
2023-04-17T05:45:41.671Z,100842.47
2023-04-17T05:48:10.144Z,100841.69
2023-04-17T05:50:38.155Z,100842.22
2023-04-17T05:53:07.062Z,100842.22
2023-04-17T05:55:45.006Z,100845.59
2023-04-17T06:00:44.961Z,100846.28
2023-04-17T06:03:18.350Z,100854.53
2023-04-17T06:05:48.578Z,100857.91
2023-04-17T06:08:16.408Z,100857.13
2023-04-17T06:10:45.877Z,100861.03
2023-04-17T06:13:13.513Z,100867.41
2023-04-17T06:15:46.056Z,100865.50
2023-04-17T06:18:16.176Z,100879.13
2023-04-17T06:20:44.200Z,100875.94
2023-04-17T06:23:11.561Z,100873.41
2023-04-17T06:25:38.871Z,100881.41
2023-04-17T06:28:06.944Z,100877.88
2023-04-17T06:30:34.880Z,100882.78
2023-04-17T06:33:03.345Z,100882.56
2023-04-17T06:35:31.896Z,100887.03
2023-04-17T06:38:09.093Z,100886.28
2023-04-17T06:40:37.171Z,100878.50
2023-04-17T06:43:06.410Z,100887.63
2023-04-17T06:45:42.179Z,100881.16
2023-04-17T06:48:10.078Z,100879.13
2023-04-17T06:50:40.048Z,100884.03
2023-04-17T06:53:07.356Z,100891.44
2023-04-17T06:55:34.812Z,100891.50
2023-04-17T06:58:02.636Z,100892.94
2023-04-17T07:00:30.132Z,100890.91
2023-04-17T07:02:58.834Z,100900.44
2023-04-17T07:05:26.772Z,100898.41
2023-04-17T07:07:54.550Z,100897.69
2023-04-17T07:10:22.320Z,100899.53
2023-04-17T07:12:50.016Z,100905.78
2023-04-17T07:15:17.681Z,100897.34
2023-04-17T07:17:45.564Z,100901.19
2023-04-17T07:20:12.919Z,100907.38
2023-04-17T07:22:40.368Z,100893.84
2023-04-17T07:25:08.416Z,100899.91
2023-04-17T07:27:38.360Z,100902.03
2023-04-17T07:30:07.627Z,100905.88
2023-04-17T07:32:35.380Z,100909.75
2023-04-17T07:35:02.693Z,100910.41
2023-04-17T07:37:29.974Z,100913.16
2023-04-17T07:39:57.428Z,100909.22
2023-04-17T07:42:24.745Z,100915.75
2023-04-17T07:44:52.510Z,100918.28
2023-04-17T07:47:20.753Z,100914.94
2023-04-17T07:49:49.239Z,100922.22
2023-04-17T07:52:18.170Z,100912.44
2023-04-17T07:54:45.986Z,100919.81
2023-04-17T07:57:15.033Z,100918.91
2023-04-17T07:59:42.437Z,100913.41
2023-04-17T08:02:10.068Z,100923.28
2023-04-17T08:04:40.580Z,100927.91
2023-04-17T08:07:10.743Z,100937.28
2023-04-17T08:09:43.268Z,100929.72
2023-04-17T08:12:11.405Z,100930.75
2023-04-17T08:14:40.865Z,100935.03
2023-04-17T08:17:08.984Z,100933.66
2023-04-17T08:19:37.218Z,100930.16
2023-04-17T08:22:05.065Z,100937.25
2023-04-17T08:24:32.381Z,100937.97
2023-04-17T08:27:00.636Z,100940.53
2023-04-17T08:29:28.422Z,100937.72
2023-04-17T08:32:12.717Z,100930.75
2023-04-17T08:34:42.330Z,100936.06
2023-04-17T08:37:09.764Z,100943.47
2023-04-17T08:39:37.267Z,100941.41
2023-04-17T08:42:13.375Z,100952.34
2023-04-17T08:44:44.383Z,100944.91
2023-04-17T08:47:13.000Z,100944.91
2023-04-17T08:49:43.935Z,100944.19
2023-04-17T08:52:12.238Z,100945.97
2023-04-17T08:54:40.216Z,100945.81
2023-04-17T08:57:08.068Z,100944.19
2023-04-17T08:59:35.364Z,100941.16
2023-04-17T09:02:04.744Z,100942.09
2023-04-17T09:04:36.316Z,100945.41
2023-04-17T09:07:05.175Z,100942.97
2023-04-17T09:09:51.220Z,100942.00
2023-04-17T09:12:19.456Z,100934.66
2023-04-17T09:14:47.349Z,100937.31
2023-04-17T09:17:17.440Z,100937.31
2023-04-17T09:20:07.552Z,100932.47
2023-04-17T09:22:40.610Z,100934.69
2023-04-17T09:25:16.292Z,100930.16
2023-04-17T09:27:44.012Z,100930.56
2023-04-17T09:30:11.397Z,100936.81
2023-04-17T09:32:43.286Z,100939.75
2023-04-17T09:35:11.117Z,100930.97
2023-04-17T09:37:49.554Z,100940.06
2023-04-17T09:40:18.709Z,100937.69
2023-04-17T09:43:00.159Z,100942.13
2023-04-17T09:45:33.103Z,100939.47
2023-04-17T09:48:01.165Z,100938.38
2023-04-17T09:50:29.245Z,100943.66
2023-04-17T09:52:56.703Z,100931.47
2023-04-17T09:55:26.608Z,100931.91
2023-04-17T09:57:55.534Z,100922.88
2023-04-17T10:00:23.757Z,100924.56
2023-04-17T10:02:52.406Z,100917.34
2023-04-17T10:05:21.257Z,100921.00
2023-04-17T10:07:49.070Z,100916.81
2023-04-17T10:10:26.928Z,100912.25
2023-04-17T10:12:56.852Z,100902.41
2023-04-17T10:15:24.991Z,100900.94
2023-04-17T10:17:53.294Z,100900.34
2023-04-17T10:20:23.865Z,100906.63
2023-04-17T10:22:56.365Z,100903.13
2023-04-17T10:25:25.764Z,100907.06
2023-04-17T10:27:54.065Z,100893.19
2023-04-17T10:30:23.228Z,100892.47
2023-04-17T10:33:10.435Z,100888.47
2023-04-17T10:35:38.340Z,100890.53
2023-04-17T10:38:07.233Z,100889.88
2023-04-17T10:40:36.464Z,100894.47
2023-04-17T10:43:04.512Z,100882.22
2023-04-17T10:45:50.619Z,100886.03
2023-04-17T10:48:22.502Z,100885.72
2023-04-17T10:50:50.283Z,100882.22
2023-04-17T10:53:37.384Z,100886.53
2023-04-17T10:56:04.999Z,100885.78
2023-04-17T10:58:32.600Z,100877.97
2023-04-17T11:01:02.939Z,100876.16
2023-04-17T11:03:31.437Z,100874.78
2023-04-17T11:05:59.593Z,100873.19
2023-04-17T11:08:26.937Z,100874.81
2023-04-17T11:10:56.527Z,100865.00
2023-04-17T11:13:24.425Z,100868.28
2023-04-17T11:15:52.192Z,100862.28
2023-04-17T11:18:21.254Z,100857.78
2023-04-17T11:20:49.987Z,100852.06
2023-04-17T11:23:17.964Z,100852.63
2023-04-17T11:25:46.109Z,100853.88
2023-04-17T11:28:13.966Z,100852.81
2023-04-17T11:30:44.694Z,100856.84
2023-04-17T11:33:12.823Z,100844.94
2023-04-17T11:35:41.277Z,100852.03
2023-04-17T11:38:12.566Z,100852.38
2023-04-17T11:40:59.588Z,100848.06
2023-04-17T11:43:28.435Z,100847.53
2023-04-17T11:45:56.626Z,100849.16
2023-04-17T11:48:28.459Z,100858.94
2023-04-17T11:51:01.212Z,100859.28
2023-04-17T11:53:29.036Z,100855.38
2023-04-17T11:56:31.555Z,100864.28
2023-04-17T11:59:01.609Z,100859.81
2023-04-17T12:01:29.900Z,100869.66
2023-04-17T12:03:58.287Z,100866.72
2023-04-17T12:06:35.834Z,100863.59
2023-04-17T12:09:03.288Z,100868.03
2023-04-17T12:11:32.744Z,100876.06
2023-04-17T12:14:01.016Z,100866.03
2023-04-17T12:16:29.491Z,100867.81
2023-04-17T12:18:57.351Z,100864.78
2023-04-17T12:21:24.757Z,100863.13
2023-04-17T12:23:52.967Z,100859.69
2023-04-17T12:26:20.435Z,100862.84
2023-04-17T12:28:48.197Z,100853.66
2023-04-17T12:35:07.224Z,100858.03
2023-04-17T12:37:48.367Z,100852.38
2023-04-17T12:40:20.131Z,100849.78
2023-04-17T12:42:49.855Z,100849.88
2023-04-17T12:45:17.687Z,100848.38
2023-04-17T12:47:45.001Z,100851.59
2023-04-17T12:50:12.526Z,100846.03
2023-04-17T12:52:40.974Z,100848.38
2023-04-17T12:55:08.898Z,100850.84
2023-04-17T12:57:37.416Z,100847.88
2023-04-17T13:00:07.025Z,100852.09
2023-04-17T13:02:34.693Z,100841.09
2023-04-17T13:05:02.839Z,100841.81
2023-04-17T13:07:30.561Z,100843.16
2023-04-17T13:09:58.707Z,100835.81
2023-04-17T13:12:26.287Z,100831.78
2023-04-17T13:14:54.115Z,100825.31
2023-04-17T13:17:22.151Z,100827.88
2023-04-17T13:19:49.541Z,100825.81
2023-04-17T13:22:18.114Z,100824.44
2023-04-17T13:24:46.090Z,100816.91
2023-04-17T13:27:14.031Z,100822.63
2023-04-17T13:29:41.924Z,100811.31
2023-04-17T13:32:09.805Z,100815.69
2023-04-17T13:34:37.752Z,100801.94
2023-04-17T13:37:05.128Z,100806.13
2023-04-17T13:39:32.936Z,100803.38
2023-04-17T13:42:00.488Z,100812.84
2023-04-17T13:44:28.476Z,100803.78
2023-04-17T13:46:55.709Z,100803.56
2023-04-17T13:49:23.493Z,100802.41
2023-04-17T13:51:50.896Z,100790.78
2023-04-17T13:54:18.943Z,100794.94
2023-04-17T13:56:46.399Z,100800.50
2023-04-17T13:59:14.119Z,100799.25
2023-04-17T14:01:42.308Z,100795.47
2023-04-17T14:04:10.173Z,100798.47
2023-04-17T14:06:37.847Z,100793.47
2023-04-17T14:09:05.866Z,100796.44
2023-04-17T14:11:33.177Z,100797.91
2023-04-17T14:14:01.010Z,100803.50
2023-04-17T14:16:28.465Z,100793.72
2023-04-17T14:18:57.834Z,100789.81
2023-04-17T14:21:27.790Z,100786.91
2023-04-17T14:23:56.876Z,100784.13
2023-04-17T14:26:24.174Z,100784.72
2023-04-17T14:28:51.542Z,100783.84
2023-04-17T14:31:18.863Z,100781.59
2023-04-17T14:33:46.136Z,100774.09
2023-04-17T14:36:13.549Z,100771.13
2023-04-17T14:38:41.804Z,100766.97
2023-04-17T14:41:09.180Z,100758.56
2023-04-17T14:43:36.501Z,100761.81
2023-04-17T14:46:04.267Z,100755.16
2023-04-17T14:48:34.339Z,100753.97
2023-04-17T14:51:10.123Z,100758.00
2023-04-17T14:53:37.461Z,100760.47
2023-04-17T14:56:05.882Z,100752.94
2023-04-17T14:58:33.282Z,100753.69
2023-04-17T15:01:01.110Z,100764.53
2023-04-17T15:03:28.623Z,100756.44
2023-04-17T15:05:57.065Z,100766.47
2023-04-17T15:08:24.855Z,100760.81
2023-04-17T15:10:52.782Z,100773.81
2023-04-17T15:13:20.278Z,100775.84
2023-04-17T15:15:47.572Z,100773.53
2023-04-17T15:18:15.871Z,100780.97
2023-04-17T15:20:43.211Z,100789.97
2023-04-17T15:23:10.975Z,100783.25
2023-04-17T15:25:38.446Z,100786.13
2023-04-17T15:28:06.473Z,100792.75
2023-04-17T15:30:34.739Z,100786.56
2023-04-17T15:33:02.462Z,100792.91
2023-04-17T15:35:29.852Z,100787.84
2023-04-17T15:37:57.650Z,100794.81
2023-04-17T15:40:25.369Z,100786.63
2023-04-17T15:42:53.183Z,100778.78
2023-04-17T15:45:20.789Z,100787.94
2023-04-17T15:47:48.336Z,100796.75
2023-04-17T15:50:16.062Z,100791.13
2023-04-17T15:52:43.381Z,100779.41
2023-04-17T15:55:11.360Z,100786.50
2023-04-17T15:57:41.037Z,100782.34
2023-04-17T16:00:10.647Z,100781.50
2023-04-17T16:02:38.480Z,100777.97
2023-04-17T16:05:06.261Z,100775.44
2023-04-17T16:07:34.398Z,100782.13
2023-04-17T16:10:01.769Z,100781.69
2023-04-17T16:12:29.152Z,100779.81
2023-04-17T16:14:56.446Z,100776.09
2023-04-17T16:17:23.727Z,100775.06
2023-04-17T16:19:51.202Z,100782.66
2023-04-17T16:22:18.889Z,100778.19
2023-04-17T16:24:46.146Z,100785.28
2023-04-17T16:27:13.509Z,100790.56
2023-04-17T16:29:41.238Z,100786.28
2023-04-17T16:32:08.590Z,100784.25
2023-04-17T16:34:36.268Z,100791.09
2023-04-17T16:37:04.044Z,100798.25
2023-04-17T16:39:31.503Z,100801.06
2023-04-17T16:41:58.815Z,100795.69
2023-04-17T16:44:27.388Z,100795.56
2023-04-17T16:47:12.682Z,100796.69
2023-04-17T16:49:41.685Z,100793.53
2023-04-17T16:52:09.137Z,100794.09
2023-04-17T16:54:36.672Z,100796.69
2023-04-17T16:57:05.322Z,100792.88
2023-04-17T16:59:32.900Z,100783.94
2023-04-17T17:02:02.450Z,100795.59
2023-04-17T17:04:30.980Z,100798.75
2023-04-17T17:06:58.312Z,100794.78
2023-04-17T17:09:26.557Z,100799.50
2023-04-17T17:11:54.282Z,100793.63
2023-04-17T17:14:22.407Z,100796.44
2023-04-17T17:16:50.088Z,100797.22
2023-04-17T17:19:17.623Z,100788.97
2023-04-17T17:21:44.876Z,100797.84
2023-04-17T17:24:12.178Z,100792.97
2023-04-17T17:26:39.540Z,100799.13
2023-04-17T17:29:07.628Z,100792.69
2023-04-17T17:31:35.362Z,100789.19
2023-04-17T17:34:16.663Z,100800.50
2023-04-17T17:36:50.942Z,100802.50
2023-04-17T17:39:18.200Z,100801.03
2023-04-17T17:41:47.349Z,100799.81
2023-04-17T17:44:15.165Z,100802.75
2023-04-17T17:46:42.625Z,100796.69
2023-04-17T17:49:10.526Z,100798.28
2023-04-17T17:51:37.933Z,100792.97
2023-04-17T17:54:05.225Z,100802.84
2023-04-17T17:56:32.638Z,100805.75
2023-04-17T17:59:00.340Z,100802.28
2023-04-17T18:01:28.317Z,100799.50
2023-04-17T18:03:56.184Z,100800.81
2023-04-17T18:06:25.042Z,100806.97
2023-04-17T18:08:53.082Z,100811.56
2023-04-17T18:11:21.330Z,100811.69
2023-04-17T18:13:48.624Z,100807.81
2023-04-17T18:16:16.946Z,100809.78
2023-04-17T18:18:44.941Z,100812.16
2023-04-17T18:21:12.851Z,100808.56
2023-04-17T18:23:40.673Z,100809.38
2023-04-17T18:26:08.117Z,100817.22
2023-04-17T18:28:35.939Z,100809.09
2023-04-17T18:31:03.766Z,100813.03
2023-04-17T18:33:31.175Z,100816.91
2023-04-17T18:35:58.527Z,100825.00
2023-04-17T18:38:26.334Z,100822.50
2023-04-17T18:40:54.776Z,100828.34
2023-04-17T18:43:22.416Z,100829.16
2023-04-17T18:45:50.409Z,100822.75
2023-04-17T18:48:18.437Z,100824.28
2023-04-17T18:50:45.886Z,100823.28
2023-04-17T18:53:14.004Z,100827.72
2023-04-17T18:55:41.298Z,100821.66
2023-04-17T18:58:08.570Z,100828.06
2023-04-17T19:00:37.648Z,100823.03
2023-04-17T19:03:05.097Z,100826.63
2023-04-17T19:05:33.048Z,100827.78
2023-04-17T19:08:00.620Z,100832.06
2023-04-17T19:10:29.904Z,100826.63
2023-04-17T19:12:57.221Z,100834.38
2023-04-17T19:15:24.976Z,100826.56
2023-04-17T19:17:52.855Z,100823.31
2023-04-17T19:20:22.838Z,100832.63
2023-04-17T19:22:50.164Z,100827.22
2023-04-17T19:25:18.393Z,100827.47
2023-04-17T19:27:46.647Z,100827.50
2023-04-17T19:30:13.974Z,100827.91
2023-04-17T19:32:41.611Z,100827.78
2023-04-17T19:35:09.148Z,100822.88
2023-04-17T19:37:37.062Z,100836.56
2023-04-17T19:40:11.252Z,100829.16
2023-04-17T19:42:42.482Z,100828.91
2023-04-17T19:45:10.829Z,100823.59
2023-04-17T19:47:40.225Z,100836.69
2023-04-17T19:50:10.091Z,100831.34
2023-04-17T19:52:38.466Z,100825.22
2023-04-17T19:55:08.119Z,100832.50
2023-04-17T19:57:36.594Z,100836.50
2023-04-17T20:00:04.558Z,100830.22
2023-04-17T20:02:40.063Z,100837.16
2023-04-17T20:05:08.375Z,100832.69
2023-04-17T20:07:35.848Z,100830.03
2023-04-17T20:10:04.947Z,100826.53
2023-04-17T20:12:32.908Z,100820.19
2023-04-17T20:15:00.953Z,100828.09
2023-04-17T20:17:28.776Z,100812.50
2023-04-17T20:19:56.030Z,100816.84
2023-04-17T20:22:23.765Z,100821.19
2023-04-17T20:24:51.106Z,100822.03
2023-04-17T20:27:18.513Z,100821.31
2023-04-17T20:29:46.913Z,100822.13
2023-04-17T20:32:14.305Z,100821.97
2023-04-17T20:34:42.101Z,100820.50
2023-04-17T20:37:09.612Z,100822.81
2023-04-17T20:39:36.876Z,100823.22
2023-04-17T20:42:04.272Z,100822.38
2023-04-17T20:44:32.048Z,100816.78
2023-04-17T20:46:59.358Z,100818.88
2023-04-17T20:49:26.678Z,100817.53
2023-04-17T20:51:54.459Z,100815.97
2023-04-17T20:54:25.099Z,100822.69
2023-04-17T20:56:52.460Z,100825.31
2023-04-17T20:59:20.697Z,100822.09
2023-04-17T21:01:48.085Z,100833.63
2023-04-17T21:04:16.335Z,100831.81
2023-04-17T21:06:44.419Z,100828.75
2023-04-17T21:09:14.792Z,100833.91
2023-04-17T21:11:44.348Z,100833.44
2023-04-17T21:14:15.148Z,100829.13
2023-04-17T21:16:45.307Z,100832.22
2023-04-17T21:19:15.123Z,100830.59
2023-04-17T21:21:42.677Z,100830.84
2023-04-17T21:24:11.501Z,100835.38
2023-04-17T21:26:39.447Z,100830.66
2023-04-17T21:29:07.390Z,100832.25
2023-04-17T21:31:35.320Z,100825.22
2023-04-17T21:34:03.898Z,100829.69
2023-04-17T21:36:31.597Z,100829.47
2023-04-17T21:38:59.095Z,100823.78
2023-04-17T21:41:27.128Z,100821.88
2023-04-17T21:43:54.866Z,100818.53
2023-04-17T21:46:22.290Z,100823.47
2023-04-17T21:48:50.744Z,100826.63
2023-04-17T21:51:18.515Z,100822.19
2023-04-17T21:53:46.524Z,100827.56
2023-04-17T21:56:15.136Z,100826.13
2023-04-17T21:58:42.539Z,100824.09
2023-04-17T22:01:09.930Z,100831.91
2023-04-17T22:03:37.669Z,100829.00
2023-04-17T22:06:05.512Z,100822.91
2023-04-17T22:08:33.398Z,100826.63
2023-04-17T22:11:01.138Z,100827.59
2023-04-17T22:13:28.453Z,100837.53
2023-04-17T22:15:58.187Z,100828.88
2023-04-17T22:18:27.630Z,100827.69
2023-04-17T22:20:55.444Z,100832.00
2023-04-17T22:23:23.236Z,100831.25
2023-04-17T22:25:50.621Z,100832.94
2023-04-17T22:28:17.869Z,100839.69
2023-04-17T22:30:45.621Z,100825.81
2023-04-17T22:33:12.973Z,100832.38
2023-04-17T22:35:40.337Z,100828.19
2023-04-17T22:38:08.101Z,100833.44
2023-04-17T22:40:36.092Z,100833.69
2023-04-17T22:43:03.451Z,100826.25
2023-04-17T22:45:30.822Z,100833.94
2023-04-17T22:47:58.649Z,100835.72
2023-04-17T22:50:26.393Z,100836.06
2023-04-17T22:52:54.104Z,100837.38
2023-04-17T22:55:22.369Z,100835.44
2023-04-17T22:57:50.169Z,100836.44
2023-04-17T23:00:19.993Z,100843.97
2023-04-17T23:02:47.987Z,100831.94
2023-04-17T23:05:15.582Z,100844.06
2023-04-17T23:07:43.001Z,100846.00
2023-04-17T23:10:20.335Z,100847.59
2023-04-17T23:12:47.604Z,100847.72
2023-04-17T23:15:15.940Z,100853.78
2023-04-17T23:17:43.337Z,100850.00
2023-04-17T23:20:11.277Z,100845.28
2023-04-17T23:22:38.630Z,100848.56
2023-04-17T23:25:06.793Z,100847.63
2023-04-17T23:27:34.948Z,100842.22
2023-04-17T23:30:02.471Z,100851.97
2023-04-17T23:32:30.446Z,100847.56
2023-04-17T23:34:57.900Z,100839.09
2023-04-17T23:37:25.749Z,100841.50
2023-04-17T23:39:53.133Z,100843.19
2023-04-17T23:42:21.103Z,100842.97
2023-04-17T23:44:48.489Z,100840.31
2023-04-17T23:47:16.100Z,100838.91
2023-04-17T23:49:43.412Z,100842.59
2023-04-17T23:52:11.335Z,100837.59
2023-04-17T23:54:38.617Z,100836.00
2023-04-17T23:57:05.963Z,100834.50
2023-04-17T23:59:33.283Z,100834.53
